sensor_id;sensor_type;location;lat;lon;timestamp;temperature;humidity
80931;DHT22;70388;42.698;23.324;2023-12-28T00:00:18;5.90;85.40
80931;DHT22;70388;42.698;23.324;2023-12-28T00:02:44;6.00;85.10
80931;DHT22;70388;42.698;23.324;2023-12-28T00:05:09;6.00;85.00
80931;DHT22;70388;42.698;23.324;2023-12-28T00:07:35;5.90;85.10
80931;DHT22;70388;42.698;23.324;2023-12-28T00:10:02;5.80;85.70
80931;DHT22;70388;42.698;23.324;2023-12-28T00:12:28;5.70;86.40
80931;DHT22;70388;42.698;23.324;2023-12-28T00:14:54;5.70;86.40
80931;DHT22;70388;42.698;23.324;2023-12-28T00:17:19;5.80;86.50
80931;DHT22;70388;42.698;23.324;2023-12-28T00:19:46;5.80;86.10
80931;DHT22;70388;42.698;23.324;2023-12-28T00:22:11;5.90;86.00
80931;DHT22;70388;42.698;23.324;2023-12-28T00:24:37;5.90;85.60
80931;DHT22;70388;42.698;23.324;2023-12-28T00:27:03;5.90;85.90
80931;DHT22;70388;42.698;23.324;2023-12-28T00:29:29;6.00;85.50
80931;DHT22;70388;42.698;23.324;2023-12-28T00:31:55;6.00;85.40
80931;DHT22;70388;42.698;23.324;2023-12-28T00:34:21;5.90;85.50
80931;DHT22;70388;42.698;23.324;2023-12-28T00:36:47;5.90;85.70
80931;DHT22;70388;42.698;23.324;2023-12-28T00:39:13;6.00;85.80
80931;DHT22;70388;42.698;23.324;2023-12-28T00:41:39;5.80;86.00
80931;DHT22;70388;42.698;23.324;2023-12-28T00:44:04;5.40;88.20
80931;DHT22;70388;42.698;23.324;2023-12-28T00:46:32;5.10;90.10
80931;DHT22;70388;42.698;23.324;2023-12-28T00:48:58;5.00;90.60
80931;DHT22;70388;42.698;23.324;2023-12-28T00:51:24;4.90;91.00
80931;DHT22;70388;42.698;23.324;2023-12-28T00:53:49;4.90;91.30
80931;DHT22;70388;42.698;23.324;2023-12-28T00:56:16;4.90;91.40
80931;DHT22;70388;42.698;23.324;2023-12-28T00:58:42;5.00;91.40
80931;DHT22;70388;42.698;23.324;2023-12-28T01:01:09;5.10;91.10
80931;DHT22;70388;42.698;23.324;2023-12-28T01:03:35;5.20;90.70
80931;DHT22;70388;42.698;23.324;2023-12-28T01:06:01;5.50;90.20
80931;DHT22;70388;42.698;23.324;2023-12-28T01:08:27;5.50;89.60
80931;DHT22;70388;42.698;23.324;2023-12-28T01:10:53;5.60;88.70
80931;DHT22;70388;42.698;23.324;2023-12-28T01:13:18;5.70;87.90
80931;DHT22;70388;42.698;23.324;2023-12-28T01:15:44;5.70;87.30
80931;DHT22;70388;42.698;23.324;2023-12-28T01:18:10;5.70;87.40
80931;DHT22;70388;42.698;23.324;2023-12-28T01:20:36;5.80;87.00
80931;DHT22;70388;42.698;23.324;2023-12-28T01:23:03;5.80;86.40
80931;DHT22;70388;42.698;23.324;2023-12-28T01:25:28;5.70;86.60
80931;DHT22;70388;42.698;23.324;2023-12-28T01:27:54;5.70;86.80
80931;DHT22;70388;42.698;23.324;2023-12-28T01:30:20;5.60;87.00
80931;DHT22;70388;42.698;23.324;2023-12-28T01:32:46;5.80;86.40
80931;DHT22;70388;42.698;23.324;2023-12-28T01:35:11;5.80;85.70
80931;DHT22;70388;42.698;23.324;2023-12-28T01:37:37;5.80;85.60
80931;DHT22;70388;42.698;23.324;2023-12-28T01:40:03;5.70;85.70
80931;DHT22;70388;42.698;23.324;2023-12-28T01:42:29;5.70;86.00
80931;DHT22;70388;42.698;23.324;2023-12-28T01:44:57;5.60;86.40
80931;DHT22;70388;42.698;23.324;2023-12-28T01:47:24;5.50;86.70
80931;DHT22;70388;42.698;23.324;2023-12-28T01:49:50;5.50;87.30
80931;DHT22;70388;42.698;23.324;2023-12-28T01:52:16;5.50;86.90
80931;DHT22;70388;42.698;23.324;2023-12-28T01:54:43;5.40;87.10
80931;DHT22;70388;42.698;23.324;2023-12-28T01:57:09;5.50;87.20
80931;DHT22;70388;42.698;23.324;2023-12-28T01:59:36;5.40;87.40
80931;DHT22;70388;42.698;23.324;2023-12-28T02:02:02;5.30;87.50
80931;DHT22;70388;42.698;23.324;2023-12-28T02:04:28;5.30;87.60
80931;DHT22;70388;42.698;23.324;2023-12-28T02:06:56;5.30;87.60
80931;DHT22;70388;42.698;23.324;2023-12-28T02:09:22;5.20;87.30
80931;DHT22;70388;42.698;23.324;2023-12-28T02:11:49;5.10;87.90
80931;DHT22;70388;42.698;23.324;2023-12-28T02:14:15;5.00;88.50
80931;DHT22;70388;42.698;23.324;2023-12-28T02:17:01;4.90;88.70
80931;DHT22;70388;42.698;23.324;2023-12-28T02:19:55;4.90;89.80
80931;DHT22;70388;42.698;23.324;2023-12-28T02:22:23;4.90;89.00
80931;DHT22;70388;42.698;23.324;2023-12-28T02:25:06;4.90;88.90
80931;DHT22;70388;42.698;23.324;2023-12-28T02:27:45;4.90;89.20
80931;DHT22;70388;42.698;23.324;2023-12-28T02:30:14;4.80;89.20
80931;DHT22;70388;42.698;23.324;2023-12-28T02:35:40;4.80;89.40
80931;DHT22;70388;42.698;23.324;2023-12-28T02:38:09;4.80;89.90
80931;DHT22;70388;42.698;23.324;2023-12-28T02:40:40;4.60;88.60
80931;DHT22;70388;42.698;23.324;2023-12-28T02:43:10;4.40;89.20
80931;DHT22;70388;42.698;23.324;2023-12-28T02:45:36;4.20;90.10
80931;DHT22;70388;42.698;23.324;2023-12-28T02:48:03;4.10;90.70
80931;DHT22;70388;42.698;23.324;2023-12-28T02:50:29;4.00;90.80
80931;DHT22;70388;42.698;23.324;2023-12-28T02:52:59;4.00;90.50
80931;DHT22;70388;42.698;23.324;2023-12-28T02:55:24;4.10;90.50
80931;DHT22;70388;42.698;23.324;2023-12-28T02:57:51;4.00;90.40
80931;DHT22;70388;42.698;23.324;2023-12-28T03:00:17;3.80;90.60
80931;DHT22;70388;42.698;23.324;2023-12-28T03:02:43;3.80;90.60
80931;DHT22;70388;42.698;23.324;2023-12-28T03:05:09;3.90;90.60
80931;DHT22;70388;42.698;23.324;2023-12-28T03:07:35;3.80;90.30
80931;DHT22;70388;42.698;23.324;2023-12-28T03:10:02;4.00;90.00
80931;DHT22;70388;42.698;23.324;2023-12-28T03:12:29;4.10;89.70
80931;DHT22;70388;42.698;23.324;2023-12-28T03:14:55;4.00;90.10
80931;DHT22;70388;42.698;23.324;2023-12-28T03:17:21;4.00;90.10
80931;DHT22;70388;42.698;23.324;2023-12-28T03:19:47;4.00;90.10
80931;DHT22;70388;42.698;23.324;2023-12-28T03:22:13;3.90;90.20
80931;DHT22;70388;42.698;23.324;2023-12-28T03:24:39;3.90;90.40
80931;DHT22;70388;42.698;23.324;2023-12-28T03:27:06;3.90;90.50
80931;DHT22;70388;42.698;23.324;2023-12-28T03:29:31;3.90;90.50
80931;DHT22;70388;42.698;23.324;2023-12-28T03:31:57;3.90;90.30
80931;DHT22;70388;42.698;23.324;2023-12-28T03:34:24;4.00;90.10
80931;DHT22;70388;42.698;23.324;2023-12-28T03:36:52;4.00;89.80
80931;DHT22;70388;42.698;23.324;2023-12-28T03:39:18;4.00;89.60
80931;DHT22;70388;42.698;23.324;2023-12-28T03:41:43;4.00;89.70
80931;DHT22;70388;42.698;23.324;2023-12-28T03:44:09;3.90;90.10
80931;DHT22;70388;42.698;23.324;2023-12-28T03:46:35;3.90;90.20
80931;DHT22;70388;42.698;23.324;2023-12-28T03:49:01;3.90;90.10
80931;DHT22;70388;42.698;23.324;2023-12-28T03:51:27;4.00;90.00
80931;DHT22;70388;42.698;23.324;2023-12-28T03:53:52;4.00;89.80
80931;DHT22;70388;42.698;23.324;2023-12-28T03:56:23;4.00;90.00
80931;DHT22;70388;42.698;23.324;2023-12-28T03:58:49;3.90;90.10
80931;DHT22;70388;42.698;23.324;2023-12-28T04:01:20;3.90;90.40
80931;DHT22;70388;42.698;23.324;2023-12-28T04:03:47;3.80;90.70
80931;DHT22;70388;42.698;23.324;2023-12-28T04:06:13;3.80;90.80
80931;DHT22;70388;42.698;23.324;2023-12-28T04:08:40;3.80;90.80
80931;DHT22;70388;42.698;23.324;2023-12-28T04:11:06;3.90;90.90
80931;DHT22;70388;42.698;23.324;2023-12-28T04:13:32;3.90;90.70
80931;DHT22;70388;42.698;23.324;2023-12-28T04:15:57;4.00;90.50
80931;DHT22;70388;42.698;23.324;2023-12-28T04:18:23;4.00;90.40
80931;DHT22;70388;42.698;23.324;2023-12-28T04:20:49;4.10;90.80
80931;DHT22;70388;42.698;23.324;2023-12-28T04:23:15;4.00;90.40
80931;DHT22;70388;42.698;23.324;2023-12-28T04:25:41;4.20;90.20
80931;DHT22;70388;42.698;23.324;2023-12-28T04:28:07;4.10;90.20
80931;DHT22;70388;42.698;23.324;2023-12-28T04:30:33;4.10;90.20
80931;DHT22;70388;42.698;23.324;2023-12-28T04:32:59;4.20;90.10
80931;DHT22;70388;42.698;23.324;2023-12-28T04:35:25;4.10;90.20
80931;DHT22;70388;42.698;23.324;2023-12-28T04:37:51;4.20;90.30
80931;DHT22;70388;42.698;23.324;2023-12-28T04:40:17;4.10;90.40
80931;DHT22;70388;42.698;23.324;2023-12-28T04:42:43;4.00;90.60
80931;DHT22;70388;42.698;23.324;2023-12-28T04:45:09;4.00;90.50
80931;DHT22;70388;42.698;23.324;2023-12-28T04:47:38;4.10;90.30
80931;DHT22;70388;42.698;23.324;2023-12-28T04:50:05;4.20;90.00
80931;DHT22;70388;42.698;23.324;2023-12-28T04:52:31;4.10;89.60
80931;DHT22;70388;42.698;23.324;2023-12-28T04:54:57;4.10;89.80
80931;DHT22;70388;42.698;23.324;2023-12-28T04:57:23;4.20;89.70
80931;DHT22;70388;42.698;23.324;2023-12-28T04:59:51;4.20;89.80
80931;DHT22;70388;42.698;23.324;2023-12-28T05:02:17;4.20;89.70
80931;DHT22;70388;42.698;23.324;2023-12-28T05:04:42;4.20;90.00
80931;DHT22;70388;42.698;23.324;2023-12-28T05:07:08;4.20;90.00
80931;DHT22;70388;42.698;23.324;2023-12-28T05:09:34;4.20;89.40
80931;DHT22;70388;42.698;23.324;2023-12-28T05:12:00;4.20;88.80
80931;DHT22;70388;42.698;23.324;2023-12-28T05:14:26;4.20;88.30
80931;DHT22;70388;42.698;23.324;2023-12-28T05:16:52;4.30;87.60
80931;DHT22;70388;42.698;23.324;2023-12-28T05:19:17;4.30;86.70
80931;DHT22;70388;42.698;23.324;2023-12-28T05:21:43;4.20;86.90
80931;DHT22;70388;42.698;23.324;2023-12-28T05:24:09;4.10;87.00
80931;DHT22;70388;42.698;23.324;2023-12-28T05:26:35;4.00;87.00
80931;DHT22;70388;42.698;23.324;2023-12-28T05:29:01;4.00;87.00
80931;DHT22;70388;42.698;23.324;2023-12-28T05:31:26;3.90;87.20
80931;DHT22;70388;42.698;23.324;2023-12-28T05:33:52;3.80;87.40
80931;DHT22;70388;42.698;23.324;2023-12-28T05:36:18;3.70;88.20
80931;DHT22;70388;42.698;23.324;2023-12-28T05:38:44;3.60;89.00
80931;DHT22;70388;42.698;23.324;2023-12-28T05:41:10;3.60;89.50
80931;DHT22;70388;42.698;23.324;2023-12-28T05:43:37;3.50;90.00
80931;DHT22;70388;42.698;23.324;2023-12-28T05:46:03;3.60;89.70
80931;DHT22;70388;42.698;23.324;2023-12-28T05:48:28;3.50;89.70
80931;DHT22;70388;42.698;23.324;2023-12-28T05:50:54;3.60;89.80
80931;DHT22;70388;42.698;23.324;2023-12-28T05:53:20;3.50;89.80
80931;DHT22;70388;42.698;23.324;2023-12-28T05:55:46;3.50;89.90
80931;DHT22;70388;42.698;23.324;2023-12-28T05:58:11;3.60;89.80
80931;DHT22;70388;42.698;23.324;2023-12-28T06:00:37;3.60;89.90
80931;DHT22;70388;42.698;23.324;2023-12-28T06:03:05;3.50;89.60
80931;DHT22;70388;42.698;23.324;2023-12-28T06:05:31;3.30;90.40
80931;DHT22;70388;42.698;23.324;2023-12-28T06:07:57;3.40;90.40
80931;DHT22;70388;42.698;23.324;2023-12-28T06:10:23;3.50;90.20
80931;DHT22;70388;42.698;23.324;2023-12-28T06:12:50;3.60;89.90
80931;DHT22;70388;42.698;23.324;2023-12-28T06:15:16;3.60;89.80
80931;DHT22;70388;42.698;23.324;2023-12-28T06:17:42;3.70;89.40
80931;DHT22;70388;42.698;23.324;2023-12-28T06:20:08;3.80;89.10
80931;DHT22;70388;42.698;23.324;2023-12-28T06:22:37;3.70;89.30
80931;DHT22;70388;42.698;23.324;2023-12-28T06:25:03;3.70;89.80
80931;DHT22;70388;42.698;23.324;2023-12-28T06:27:29;3.70;89.90
80931;DHT22;70388;42.698;23.324;2023-12-28T06:29:55;3.80;89.70
80931;DHT22;70388;42.698;23.324;2023-12-28T06:32:21;3.70;89.70
80931;DHT22;70388;42.698;23.324;2023-12-28T06:34:47;3.80;89.50
80931;DHT22;70388;42.698;23.324;2023-12-28T06:37:14;3.80;89.20
80931;DHT22;70388;42.698;23.324;2023-12-28T06:39:39;3.90;88.80
80931;DHT22;70388;42.698;23.324;2023-12-28T06:42:05;3.90;88.40
80931;DHT22;70388;42.698;23.324;2023-12-28T06:44:31;3.90;88.30
80931;DHT22;70388;42.698;23.324;2023-12-28T06:46:57;4.00;88.10
80931;DHT22;70388;42.698;23.324;2023-12-28T06:49:24;3.90;88.40
80931;DHT22;70388;42.698;23.324;2023-12-28T06:51:50;3.90;88.90
80931;DHT22;70388;42.698;23.324;2023-12-28T06:54:16;4.00;88.70
80931;DHT22;70388;42.698;23.324;2023-12-28T06:56:42;4.10;88.30
80931;DHT22;70388;42.698;23.324;2023-12-28T06:59:08;4.20;88.00
80931;DHT22;70388;42.698;23.324;2023-12-28T07:01:41;4.10;87.90
80931;DHT22;70388;42.698;23.324;2023-12-28T07:04:07;4.10;88.40
80931;DHT22;70388;42.698;23.324;2023-12-28T07:06:33;4.20;87.90
80931;DHT22;70388;42.698;23.324;2023-12-28T07:08:59;4.30;87.70
80931;DHT22;70388;42.698;23.324;2023-12-28T07:11:25;4.40;87.10
80931;DHT22;70388;42.698;23.324;2023-12-28T07:13:52;4.40;87.20
80931;DHT22;70388;42.698;23.324;2023-12-28T07:16:18;4.40;87.10
80931;DHT22;70388;42.698;23.324;2023-12-28T07:18:44;4.40;87.50
80931;DHT22;70388;42.698;23.324;2023-12-28T07:21:10;4.50;87.40
80931;DHT22;70388;42.698;23.324;2023-12-28T07:23:36;4.50;86.90
80931;DHT22;70388;42.698;23.324;2023-12-28T07:26:03;4.60;86.70
80931;DHT22;70388;42.698;23.324;2023-12-28T07:28:28;4.60;86.40
80931;DHT22;70388;42.698;23.324;2023-12-28T07:30:54;4.80;85.20
80931;DHT22;70388;42.698;23.324;2023-12-28T07:33:20;4.80;85.00
80931;DHT22;70388;42.698;23.324;2023-12-28T07:35:46;4.80;85.00
80931;DHT22;70388;42.698;23.324;2023-12-28T07:38:12;4.90;85.40
80931;DHT22;70388;42.698;23.324;2023-12-28T07:40:38;5.00;85.10
80931;DHT22;70388;42.698;23.324;2023-12-28T07:43:04;5.00;84.70
80931;DHT22;70388;42.698;23.324;2023-12-28T07:45:30;5.10;84.80
80931;DHT22;70388;42.698;23.324;2023-12-28T07:47:56;5.10;84.20
80931;DHT22;70388;42.698;23.324;2023-12-28T07:50:21;5.20;83.80
80931;DHT22;70388;42.698;23.324;2023-12-28T07:52:48;5.30;83.40
80931;DHT22;70388;42.698;23.324;2023-12-28T07:55:14;5.30;82.80
80931;DHT22;70388;42.698;23.324;2023-12-28T07:57:40;5.30;82.30
80931;DHT22;70388;42.698;23.324;2023-12-28T08:00:07;5.30;82.30
80931;DHT22;70388;42.698;23.324;2023-12-28T08:02:33;5.20;82.30
80931;DHT22;70388;42.698;23.324;2023-12-28T08:04:59;5.30;83.00
80931;DHT22;70388;42.698;23.324;2023-12-28T08:07:25;5.30;83.10
80931;DHT22;70388;42.698;23.324;2023-12-28T08:09:51;5.40;82.50
80931;DHT22;70388;42.698;23.324;2023-12-28T08:12:17;5.40;82.20
80931;DHT22;70388;42.698;23.324;2023-12-28T08:14:43;5.60;81.90
80931;DHT22;70388;42.698;23.324;2023-12-28T08:17:09;5.60;81.10
80931;DHT22;70388;42.698;23.324;2023-12-28T08:19:35;5.70;81.20
80931;DHT22;70388;42.698;23.324;2023-12-28T08:22:01;6.40;79.90
80931;DHT22;70388;42.698;23.324;2023-12-28T08:24:30;7.90;73.70
80931;DHT22;70388;42.698;23.324;2023-12-28T08:26:56;9.80;66.40
80931;DHT22;70388;42.698;23.324;2023-12-28T08:29:26;11.20;60.10
80931;DHT22;70388;42.698;23.324;2023-12-28T08:31:51;12.70;55.90
80931;DHT22;70388;42.698;23.324;2023-12-28T08:34:17;13.90;52.50
80931;DHT22;70388;42.698;23.324;2023-12-28T08:36:43;14.80;51.00
80931;DHT22;70388;42.698;23.324;2023-12-28T08:39:09;15.30;48.00
80931;DHT22;70388;42.698;23.324;2023-12-28T08:41:34;14.90;47.60
80931;DHT22;70388;42.698;23.324;2023-12-28T08:44:00;15.60;47.40
80931;DHT22;70388;42.698;23.324;2023-12-28T08:46:26;16.20;46.00
80931;DHT22;70388;42.698;23.324;2023-12-28T08:48:52;16.90;44.70
80931;DHT22;70388;42.698;23.324;2023-12-28T08:51:18;17.20;43.80
80931;DHT22;70388;42.698;23.324;2023-12-28T08:53:44;17.60;42.80
80931;DHT22;70388;42.698;23.324;2023-12-28T08:56:17;17.80;42.20
80931;DHT22;70388;42.698;23.324;2023-12-28T08:58:44;18.10;41.60
80931;DHT22;70388;42.698;23.324;2023-12-28T09:01:16;18.40;41.10
80931;DHT22;70388;42.698;23.324;2023-12-28T09:03:42;18.50;40.80
80931;DHT22;70388;42.698;23.324;2023-12-28T09:06:08;18.60;40.30
80931;DHT22;70388;42.698;23.324;2023-12-28T09:08:34;18.30;40.70
80931;DHT22;70388;42.698;23.324;2023-12-28T09:11:00;17.70;41.30
80931;DHT22;70388;42.698;23.324;2023-12-28T09:13:26;17.40;42.40
80931;DHT22;70388;42.698;23.324;2023-12-28T09:15:52;17.60;42.00
80931;DHT22;70388;42.698;23.324;2023-12-28T09:18:17;17.60;42.10
80931;DHT22;70388;42.698;23.324;2023-12-28T09:20:43;17.70;41.80
80931;DHT22;70388;42.698;23.324;2023-12-28T09:23:09;18.20;41.20
80931;DHT22;70388;42.698;23.324;2023-12-28T09:25:36;18.10;40.70
80931;DHT22;70388;42.698;23.324;2023-12-28T09:28:05;18.20;40.70
80931;DHT22;70388;42.698;23.324;2023-12-28T09:30:30;18.20;40.80
80931;DHT22;70388;42.698;23.324;2023-12-28T09:32:56;18.20;41.00
80931;DHT22;70388;42.698;23.324;2023-12-28T09:35:22;18.00;40.90
80931;DHT22;70388;42.698;23.324;2023-12-28T09:37:48;17.90;40.90
80931;DHT22;70388;42.698;23.324;2023-12-28T09:40:14;18.00;41.10
80931;DHT22;70388;42.698;23.324;2023-12-28T09:45:30;17.50;41.50
80931;DHT22;70388;42.698;23.324;2023-12-28T09:47:55;18.00;41.20
80931;DHT22;70388;42.698;23.324;2023-12-28T09:50:21;18.20;41.10
80931;DHT22;70388;42.698;23.324;2023-12-28T09:52:49;17.90;40.90
80931;DHT22;70388;42.698;23.324;2023-12-28T09:55:15;18.00;41.30
80931;DHT22;70388;42.698;23.324;2023-12-28T09:57:41;17.00;42.40
80931;DHT22;70388;42.698;23.324;2023-12-28T10:00:08;15.80;44.20
80931;DHT22;70388;42.698;23.324;2023-12-28T10:02:34;14.60;46.70
80931;DHT22;70388;42.698;23.324;2023-12-28T10:05:01;13.70;48.70
80931;DHT22;70388;42.698;23.324;2023-12-28T10:07:27;12.50;52.90
80931;DHT22;70388;42.698;23.324;2023-12-28T10:09:53;11.30;54.80
80931;DHT22;70388;42.698;23.324;2023-12-28T10:12:19;10.90;56.20
80931;DHT22;70388;42.698;23.324;2023-12-28T10:14:45;10.80;57.00
80931;DHT22;70388;42.698;23.324;2023-12-28T10:17:11;10.50;57.50
80931;DHT22;70388;42.698;23.324;2023-12-28T10:19:37;10.40;58.00
80931;DHT22;70388;42.698;23.324;2023-12-28T10:22:03;10.20;58.40
80931;DHT22;70388;42.698;23.324;2023-12-28T10:24:30;9.80;60.30
80931;DHT22;70388;42.698;23.324;2023-12-28T10:26:56;9.60;61.00
80931;DHT22;70388;42.698;23.324;2023-12-28T10:29:24;9.20;62.60
80931;DHT22;70388;42.698;23.324;2023-12-28T10:31:51;9.30;62.70
80931;DHT22;70388;42.698;23.324;2023-12-28T10:34:18;9.40;62.70
80931;DHT22;70388;42.698;23.324;2023-12-28T10:36:46;9.50;62.60
80931;DHT22;70388;42.698;23.324;2023-12-28T10:39:16;9.40;62.80
80931;DHT22;70388;42.698;23.324;2023-12-28T10:41:47;9.30;64.20
80931;DHT22;70388;42.698;23.324;2023-12-28T10:44:17;9.30;64.40
80931;DHT22;70388;42.698;23.324;2023-12-28T10:46:47;9.40;64.20
80931;DHT22;70388;42.698;23.324;2023-12-28T10:49:17;9.40;64.40
80931;DHT22;70388;42.698;23.324;2023-12-28T10:51:51;9.30;64.80
80931;DHT22;70388;42.698;23.324;2023-12-28T10:57:09;9.60;64.60
80931;DHT22;70388;42.698;23.324;2023-12-28T11:02:11;9.70;64.40
80931;DHT22;70388;42.698;23.324;2023-12-28T11:04:48;9.70;64.50
80931;DHT22;70388;42.698;23.324;2023-12-28T11:07:17;9.60;64.70
80931;DHT22;70388;42.698;23.324;2023-12-28T11:09:43;9.50;65.10
80931;DHT22;70388;42.698;23.324;2023-12-28T11:12:10;9.40;65.70
80931;DHT22;70388;42.698;23.324;2023-12-28T11:14:39;9.40;65.80
80931;DHT22;70388;42.698;23.324;2023-12-28T11:17:05;9.50;65.60
80931;DHT22;70388;42.698;23.324;2023-12-28T11:19:32;9.50;65.60
80931;DHT22;70388;42.698;23.324;2023-12-28T11:22:02;9.60;65.40
80931;DHT22;70388;42.698;23.324;2023-12-28T11:24:28;9.60;65.40
80931;DHT22;70388;42.698;23.324;2023-12-28T11:26:55;9.70;65.40
80931;DHT22;70388;42.698;23.324;2023-12-28T11:29:22;9.70;65.30
80931;DHT22;70388;42.698;23.324;2023-12-28T11:31:59;9.70;65.40
80931;DHT22;70388;42.698;23.324;2023-12-28T11:34:30;9.70;65.60
80931;DHT22;70388;42.698;23.324;2023-12-28T11:36:57;9.70;65.70
80931;DHT22;70388;42.698;23.324;2023-12-28T11:41:50;9.60;66.40
80931;DHT22;70388;42.698;23.324;2023-12-28T11:44:16;9.50;66.60
80931;DHT22;70388;42.698;23.324;2023-12-28T11:46:42;9.60;66.30
80931;DHT22;70388;42.698;23.324;2023-12-28T11:49:09;9.60;66.30
80931;DHT22;70388;42.698;23.324;2023-12-28T11:51:38;9.70;66.10
80931;DHT22;70388;42.698;23.324;2023-12-28T11:54:04;9.60;66.60
80931;DHT22;70388;42.698;23.324;2023-12-28T11:56:31;9.50;66.80
80931;DHT22;70388;42.698;23.324;2023-12-28T11:58:58;9.40;67.40
80931;DHT22;70388;42.698;23.324;2023-12-28T12:01:24;9.40;67.50
80931;DHT22;70388;42.698;23.324;2023-12-28T12:03:50;9.40;67.40
80931;DHT22;70388;42.698;23.324;2023-12-28T12:06:16;9.70;66.70
80931;DHT22;70388;42.698;23.324;2023-12-28T12:08:45;9.80;66.30
80931;DHT22;70388;42.698;23.324;2023-12-28T12:11:12;9.80;65.80
80931;DHT22;70388;42.698;23.324;2023-12-28T12:13:38;9.90;65.50
80931;DHT22;70388;42.698;23.324;2023-12-28T12:16:04;10.00;65.00
80931;DHT22;70388;42.698;23.324;2023-12-28T12:18:32;10.10;64.70
80931;DHT22;70388;42.698;23.324;2023-12-28T12:20:58;10.10;64.60
80931;DHT22;70388;42.698;23.324;2023-12-28T12:23:25;10.10;64.60
80931;DHT22;70388;42.698;23.324;2023-12-28T12:25:51;10.20;64.70
80931;DHT22;70388;42.698;23.324;2023-12-28T12:28:17;10.20;64.60
80931;DHT22;70388;42.698;23.324;2023-12-28T12:30:54;10.20;64.50
80931;DHT22;70388;42.698;23.324;2023-12-28T12:33:22;10.30;64.70
80931;DHT22;70388;42.698;23.324;2023-12-28T12:35:49;10.30;64.70
80931;DHT22;70388;42.698;23.324;2023-12-28T12:38:16;10.40;64.70
80931;DHT22;70388;42.698;23.324;2023-12-28T12:40:42;10.40;64.50
80931;DHT22;70388;42.698;23.324;2023-12-28T12:43:08;10.40;64.60
80931;DHT22;70388;42.698;23.324;2023-12-28T12:45:35;10.30;64.40
80931;DHT22;70388;42.698;23.324;2023-12-28T12:48:02;10.30;64.70
80931;DHT22;70388;42.698;23.324;2023-12-28T12:50:31;10.30;64.70
80931;DHT22;70388;42.698;23.324;2023-12-28T12:52:59;10.40;64.60
80931;DHT22;70388;42.698;23.324;2023-12-28T12:55:25;10.50;64.40
80931;DHT22;70388;42.698;23.324;2023-12-28T12:57:52;10.50;64.40
80931;DHT22;70388;42.698;23.324;2023-12-28T13:00:21;10.40;64.50
80931;DHT22;70388;42.698;23.324;2023-12-28T13:02:49;10.50;64.30
80931;DHT22;70388;42.698;23.324;2023-12-28T13:05:17;10.50;64.10
80931;DHT22;70388;42.698;23.324;2023-12-28T13:07:43;10.60;64.00
80931;DHT22;70388;42.698;23.324;2023-12-28T13:10:09;10.60;64.00
80931;DHT22;70388;42.698;23.324;2023-12-28T13:12:36;10.70;63.80
80931;DHT22;70388;42.698;23.324;2023-12-28T13:15:02;10.70;63.60
80931;DHT22;70388;42.698;23.324;2023-12-28T13:17:28;10.70;63.70
80931;DHT22;70388;42.698;23.324;2023-12-28T13:19:54;10.60;63.50
80931;DHT22;70388;42.698;23.324;2023-12-28T13:22:19;10.60;63.60
80931;DHT22;70388;42.698;23.324;2023-12-28T13:24:45;10.60;63.80
80931;DHT22;70388;42.698;23.324;2023-12-28T13:27:11;10.70;63.10
80931;DHT22;70388;42.698;23.324;2023-12-28T13:29:37;10.70;62.90
80931;DHT22;70388;42.698;23.324;2023-12-28T13:32:03;10.70;62.80
80931;DHT22;70388;42.698;23.324;2023-12-28T13:34:29;10.70;63.20
80931;DHT22;70388;42.698;23.324;2023-12-28T13:36:55;10.60;63.50
80931;DHT22;70388;42.698;23.324;2023-12-28T13:39:20;10.60;63.50
80931;DHT22;70388;42.698;23.324;2023-12-28T13:41:47;10.70;63.40
80931;DHT22;70388;42.698;23.324;2023-12-28T13:44:12;10.80;62.90
80931;DHT22;70388;42.698;23.324;2023-12-28T13:46:39;10.80;62.60
80931;DHT22;70388;42.698;23.324;2023-12-28T13:49:05;10.80;62.40
80931;DHT22;70388;42.698;23.324;2023-12-28T13:51:32;10.80;62.30
80931;DHT22;70388;42.698;23.324;2023-12-28T13:53:58;10.90;62.10
80931;DHT22;70388;42.698;23.324;2023-12-28T13:56:24;10.90;61.70
80931;DHT22;70388;42.698;23.324;2023-12-28T13:58:49;11.00;61.40
80931;DHT22;70388;42.698;23.324;2023-12-28T14:01:15;11.00;61.10
80931;DHT22;70388;42.698;23.324;2023-12-28T14:03:41;11.00;61.20
80931;DHT22;70388;42.698;23.324;2023-12-28T14:06:07;11.00;61.40
80931;DHT22;70388;42.698;23.324;2023-12-28T14:08:34;10.90;61.50
80931;DHT22;70388;42.698;23.324;2023-12-28T14:11:00;10.90;61.70
80931;DHT22;70388;42.698;23.324;2023-12-28T14:13:26;10.90;61.80
80931;DHT22;70388;42.698;23.324;2023-12-28T14:15:52;11.00;61.70
80931;DHT22;70388;42.698;23.324;2023-12-28T14:18:17;11.00;61.70
80931;DHT22;70388;42.698;23.324;2023-12-28T14:20:43;10.90;61.70
80931;DHT22;70388;42.698;23.324;2023-12-28T14:23:09;10.90;61.90
80931;DHT22;70388;42.698;23.324;2023-12-28T14:25:35;10.90;61.90
80931;DHT22;70388;42.698;23.324;2023-12-28T14:28:02;10.90;62.10
80931;DHT22;70388;42.698;23.324;2023-12-28T14:30:28;10.80;62.30
80931;DHT22;70388;42.698;23.324;2023-12-28T14:32:54;10.80;62.40
80931;DHT22;70388;42.698;23.324;2023-12-28T14:35:20;10.80;62.40
80931;DHT22;70388;42.698;23.324;2023-12-28T14:37:46;10.80;62.50
80931;DHT22;70388;42.698;23.324;2023-12-28T14:40:12;10.70;62.60
80931;DHT22;70388;42.698;23.324;2023-12-28T14:42:39;10.60;63.00
80931;DHT22;70388;42.698;23.324;2023-12-28T14:45:05;10.60;63.00
80931;DHT22;70388;42.698;23.324;2023-12-28T14:47:31;10.50;63.10
80931;DHT22;70388;42.698;23.324;2023-12-28T14:49:57;10.50;63.30
80931;DHT22;70388;42.698;23.324;2023-12-28T14:52:23;10.60;63.20
80931;DHT22;70388;42.698;23.324;2023-12-28T14:54:51;10.70;62.90
80931;DHT22;70388;42.698;23.324;2023-12-28T14:57:20;10.70;62.80
80931;DHT22;70388;42.698;23.324;2023-12-28T14:59:48;10.70;62.60
80931;DHT22;70388;42.698;23.324;2023-12-28T15:02:14;10.80;62.40
80931;DHT22;70388;42.698;23.324;2023-12-28T15:04:45;10.70;62.50
80931;DHT22;70388;42.698;23.324;2023-12-28T15:07:11;10.60;62.80
80931;DHT22;70388;42.698;23.324;2023-12-28T15:09:37;10.50;63.10
80931;DHT22;70388;42.698;23.324;2023-12-28T15:12:03;10.50;63.30
80931;DHT22;70388;42.698;23.324;2023-12-28T15:14:29;10.50;63.40
80931;DHT22;70388;42.698;23.324;2023-12-28T15:16:56;10.50;63.30
80931;DHT22;70388;42.698;23.324;2023-12-28T15:19:22;10.50;63.40
80931;DHT22;70388;42.698;23.324;2023-12-28T15:21:48;10.30;63.90
80931;DHT22;70388;42.698;23.324;2023-12-28T15:24:14;10.20;64.20
80931;DHT22;70388;42.698;23.324;2023-12-28T15:26:40;10.10;64.70
80931;DHT22;70388;42.698;23.324;2023-12-28T15:29:06;10.10;65.10
80931;DHT22;70388;42.698;23.324;2023-12-28T15:31:31;10.00;65.40
80931;DHT22;70388;42.698;23.324;2023-12-28T15:33:57;10.00;65.90